Pagrindinis puslapis
METAR-TAF:

METAR-TAF

Oro uostai :

Akrotiris, Kipras

platuma: 34-35N, ilguma: 032-59E, Aukštis: 23 m

Dabartinis oras

Ataskaita buvo paskelbta 35 minutes, ne 17:20 UTC
Vėjas 5 kt iš Vakarų/Pietvakarių
Temperatūra 25°C
Drėgmė 65%
Slėgis 1009 hPa
Matomumas 10 km arba daugiau
Mažai debesys ne aukštis 6000 ft

METAR: LCRA 151720Z 25005KT 9999 FEW060 25/18 Q1009 NOSIG

Laikas: 20:55 (17:55 UTC)

Prognozė

Ataskaita buvo paskelbta 1 valandą ir 43 minutes, ne 16:12 UTC
Prognozė galioja nuo 15 metu 18 UTC su 16 metu 12 UTC
Vėjas 5 kt iš Vakarų/Pietvakarių
Matomumas 10 km arba daugiau
Mažai debesys ne aukštis 5000 ft
Tapsmas
nuo 16 metu 00 UTC su 16 metu 03 UTC
Vėjas 5 kt iš Šiaurės/Šiaurės Rytų
Tapsmas
nuo 16 metu 06 UTC su 16 metu 09 UTC
Vėjas 10 kt iš Pietvakarių

TAF: LCRA 151612Z 1518/1612 25005KT 9999 FEW050 BECMG 1600/1603 03005KT BECMG 1606/1609 22010KT

Orai ataskaitas ir orų prognozės (METAR, TAF).

turimą stotys yra geltonos ir raudonos taškus žemėlapyje.

Perkelti pele per norėdami pamatyti stoties vardą.

Tada spustelėkite, norėdami matyti oro stebėjimo ir prognozės.

Norėdami pakeisti žemėlapį: spustelėkite ant žalios mygtukų su juodo kryžiaus žemyn,; žalią mygtuką su brūkšneliu, jei norite nutolinti; arba žalių rodyklių gretimoms žemėlapius.


METAR-TAF: